Time;durP1;ratioP1;P1;durP2;ratioP2;P2;SDS_P1;SDS_P2;PMS_P1;PMS_P2;Temp;Humidity;BMP_temperature;BMP_pressure;BME280_temperature;BME280_humidity;BME280_pressure;Samples;Min_cycle;Max_cycle;Signal;HPM_P1;HPM_P2
2021/12/28 00:00:43;;;;;;;4.97;1.60;;;;;;;;;;4973644;28;20063;-76
2021/12/28 00:03:08;;;;;;;5.28;1.60;;;;;;;;;;4989596;28;20062;-75
2021/12/28 00:05:33;;;;;;;1.95;1.40;;;;;;;;;;4989207;28;20093;-75
2021/12/28 00:07:59;;;;;;;4.40;1.60;;;;;;;;;;4975719;28;20079;-75
2021/12/28 00:10:24;;;;;;;3.50;1.73;;;;;;;;;;4974973;28;20034;-75
2021/12/28 00:12:49;;;;;;;4.38;1.70;;;;;;;;;;4974271;28;20030;-76
2021/12/28 00:18:04;;;;;;;2.97;1.48;;;;;;;;;;4973423;28;20379;-76
2021/12/28 00:20:43;;;;;;;3.63;1.40;;;;;;;;;;4960024;28;20022;-76
2021/12/28 00:23:20;;;;;;;4.80;1.10;;;;;;;;;;4990990;28;20100;-75
2021/12/28 00:25:46;;;;;;;4.55;1.48;;;;;;;;;;4973031;28;20035;-75
2021/12/28 00:28:12;;;;;;;2.15;1.50;;;;;;;;;;4976664;28;20034;-75
2021/12/28 00:30:37;;;;;;;2.85;1.30;;;;;;;;;;4977596;28;20042;-76
2021/12/28 00:33:03;;;;;;;4.20;1.33;;;;;;;;;;4996853;28;20035;-75
2021/12/28 00:35:33;;;;;;;5.63;1.80;;;;;;;;;;4996193;28;20038;-75
2021/12/28 00:37:59;;;;;;;4.45;1.70;;;;;;;;;;4979295;28;20397;-75
2021/12/28 00:40:24;;;;;;;1.65;1.02;;;;;;;;;;4994727;28;20035;-75
2021/12/28 00:42:49;;;;;;;3.65;1.40;;;;;;;;;;4994381;28;20105;-76
2021/12/28 00:45:15;;;;;;;4.55;1.27;;;;;;;;;;4978748;28;20469;-75
2021/12/28 00:47:40;;;;;;;3.20;1.23;;;;;;;;;;4977873;28;20022;-75
2021/12/28 00:50:06;;;;;;;5.25;1.52;;;;;;;;;;4993321;28;20022;-75
2021/12/28 00:52:32;;;;;;;8.68;1.63;;;;;;;;;;4963231;28;20755;-75
2021/12/28 00:54:57;;;;;;;7.03;1.63;;;;;;;;;;4982489;28;20106;-75
2021/12/28 00:57:22;;;;;;;7.00;1.83;;;;;;;;;;4979910;28;20030;-75
2021/12/28 00:59:48;;;;;;;7.00;1.65;;;;;;;;;;4993170;28;20408;-75
2021/12/28 01:02:13;;;;;;;3.92;1.33;;;;;;;;;;4993864;28;20429;-75
2021/12/28 01:04:38;;;;;;;9.82;1.55;;;;;;;;;;4980070;28;20485;-75
2021/12/28 01:07:04;;;;;;;6.70;1.70;;;;;;;;;;4979114;28;20501;-75
2021/12/28 01:09:31;;;;;;;5.30;1.55;;;;;;;;;;4978188;28;20034;-75
2021/12/28 01:12:00;;;;;;;6.43;1.70;;;;;;;;;;4978370;28;20042;-75
2021/12/28 01:14:26;;;;;;;3.72;1.60;;;;;;;;;;4978093;28;20034;-75
2021/12/28 01:16:51;;;;;;;6.53;1.52;;;;;;;;;;4974902;28;20079;-75
2021/12/28 01:19:16;;;;;;;6.50;1.58;;;;;;;;;;4978389;28;20030;-75
2021/12/28 01:21:41;;;;;;;7.18;1.83;;;;;;;;;;4978725;28;20037;-75
2021/12/28 01:24:07;;;;;;;7.03;1.70;;;;;;;;;;4979770;28;20101;-75
2021/12/28 01:26:32;;;;;;;4.60;1.40;;;;;;;;;;4993075;28;20125;-75
2021/12/28 01:28:57;;;;;;;7.40;1.48;;;;;;;;;;4979534;28;20038;-75
2021/12/28 01:31:23;;;;;;;5.32;1.40;;;;;;;;;;4975566;28;20121;-76
2021/12/28 01:33:48;;;;;;;6.75;1.52;;;;;;;;;;4992802;28;20058;-75
2021/12/28 01:36:13;;;;;;;5.28;1.63;;;;;;;;;;4992795;28;20169;-75
2021/12/28 01:38:39;;;;;;;5.00;1.38;;;;;;;;;;4978313;28;20030;-75
2021/12/28 01:41:09;;;;;;;8.00;1.83;;;;;;;;;;4978403;28;20035;-75
2021/12/28 01:43:34;;;;;;;5.75;1.50;;;;;;;;;;4991643;28;20023;-75
2021/12/28 01:46:00;;;;;;;9.20;1.80;;;;;;;;;;4990578;28;20034;-75
2021/12/28 01:48:30;;;;;;;9.10;1.83;;;;;;;;;;4977500;28;20058;-75
2021/12/28 01:51:18;;;;;;;4.95;1.38;;;;;;;;;;4993206;28;20031;-75
2021/12/28 01:53:43;;;;;;;9.85;1.70;;;;;;;;;;4989152;28;20138;-75
2021/12/28 01:56:10;;;;;;;10.90;1.65;;;;;;;;;;4978023;28;20123;-74
2021/12/28 01:58:36;;;;;;;5.57;1.58;;;;;;;;;;4977470;28;20469;-75
2021/12/28 02:01:01;;;;;;;3.40;1.33;;;;;;;;;;4977943;28;20073;-75
2021/12/28 02:03:27;;;;;;;5.53;1.38;;;;;;;;;;4992940;28;20030;-75
2021/12/28 02:05:52;;;;;;;10.05;1.35;;;;;;;;;;4992004;28;20085;-75
2021/12/28 02:08:18;;;;;;;9.02;1.35;;;;;;;;;;4977851;28;20433;-74
2021/12/28 02:10:44;;;;;;;5.05;1.73;;;;;;;;;;4979177;28;20030;-74
2021/12/28 02:13:10;;;;;;;7.47;1.70;;;;;;;;;;4962645;28;20051;-74
2021/12/28 02:15:36;;;;;;;5.10;1.42;;;;;;;;;;4992508;28;20027;-74
2021/12/28 02:18:01;;;;;;;6.20;1.60;;;;;;;;;;4993246;28;20131;-74
2021/12/28 02:20:26;;;;;;;8.20;1.48;;;;;;;;;;4992071;28;20110;-74
2021/12/28 02:22:52;;;;;;;8.43;2.55;;;;;;;;;;4977583;28;20480;-74
2021/12/28 02:25:17;;;;;;;12.68;1.65;;;;;;;;;;4977362;28;20563;-74
2021/12/28 02:27:43;;;;;;;9.40;1.83;;;;;;;;;;4963688;28;20485;-74
2021/12/28 02:30:11;;;;;;;15.50;1.98;;;;;;;;;;4975612;28;20118;-75
2021/12/28 02:32:36;;;;;;;2.72;1.10;;;;;;;;;;4976315;28;20026;-74
2021/12/28 02:35:02;;;;;;;8.20;1.27;;;;;;;;;;4976206;28;20026;-74
2021/12/28 02:37:27;;;;;;;6.22;1.60;;;;;;;;;;4977658;28;20050;-74
2021/12/28 02:39:52;;;;;;;7.90;2.15;;;;;;;;;;4976061;28;20033;-74
2021/12/28 02:42:19;;;;;;;6.22;1.63;;;;;;;;;;4977589;28;20106;-74
2021/12/28 02:44:44;;;;;;;4.55;1.33;;;;;;;;;;4990267;28;20113;-74
2021/12/28 02:47:12;;;;;;;7.60;1.52;;;;;;;;;;4975475;28;20054;-74
2021/12/28 02:49:37;;;;;;;5.30;1.73;;;;;;;;;;4991417;28;20030;-74
2021/12/28 02:52:09;;;;;;;7.90;1.48;;;;;;;;;;4974336;28;20040;-74
2021/12/28 02:54:34;;;;;;;10.68;1.67;;;;;;;;;;4975388;28;20038;-75
2021/12/28 02:57:00;;;;;;;8.07;1.67;;;;;;;;;;4977279;28;20033;-75
2021/12/28 02:59:25;;;;;;;9.93;1.67;;;;;;;;;;4975040;28;20034;-75
2021/12/28 03:01:50;;;;;;;6.03;1.60;;;;;;;;;;4973010;28;20127;-75
2021/12/28 03:04:16;;;;;;;3.80;1.38;;;;;;;;;;4977003;28;20065;-75
2021/12/28 03:06:41;;;;;;;9.52;1.80;;;;;;;;;;4975267;28;20038;-75
2021/12/28 03:09:06;;;;;;;11.13;1.73;;;;;;;;;;4975130;28;20082;-75
2021/12/28 03:11:32;;;;;;;4.53;1.40;;;;;;;;;;4976532;28;20030;-75
2021/12/28 03:13:59;;;;;;;2.53;1.38;;;;;;;;;;4990758;28;20038;-75
2021/12/28 03:16:25;;;;;;;3.78;1.30;;;;;;;;;;4975927;28;20069;-75
2021/12/28 03:18:50;;;;;;;4.68;1.40;;;;;;;;;;4991603;28;20465;-75
2021/12/28 03:21:17;;;;;;;5.10;1.90;;;;;;;;;;4976064;28;20133;-75
2021/12/28 03:23:43;;;;;;;3.47;1.50;;;;;;;;;;4991364;28;20061;-75
2021/12/28 03:26:09;;;;;;;3.78;1.63;;;;;;;;;;4960333;28;20500;-75
2021/12/28 03:28:35;;;;;;;4.47;1.88;;;;;;;;;;4991892;28;20041;-75
2021/12/28 03:31:01;;;;;;;2.65;1.30;;;;;;;;;;4976693;28;20080;-75
2021/12/28 03:33:27;;;;;;;3.30;1.23;;;;;;;;;;4976462;28;20528;-75
2021/12/28 03:35:53;;;;;;;6.85;2.28;;;;;;;;;;4990845;28;20030;-76
2021/12/28 03:38:18;;;;;;;4.47;1.33;;;;;;;;;;4975482;28;20543;-76
2021/12/28 03:40:44;;;;;;;3.13;1.15;;;;;;;;;;4975492;28;20031;-76
2021/12/28 03:43:09;;;;;;;2.70;1.10;;;;;;;;;;4974613;28;20396;-76
2021/12/28 03:45:34;;;;;;;4.47;1.27;;;;;;;;;;4973758;28;20138;-76
2021/12/28 03:48:00;;;;;;;2.97;1.40;;;;;;;;;;4964196;28;20049;-76
2021/12/28 03:50:25;;;;;;;3.60;1.58;;;;;;;;;;4976382;28;20084;-75
2021/12/28 03:52:54;;;;;;;7.38;1.40;;;;;;;;;;4976308;28;20395;-75
2021/12/28 03:55:20;;;;;;;4.70;1.33;;;;;;;;;;4974185;28;20031;-75
2021/12/28 03:57:45;;;;;;;5.85;1.38;;;;;;;;;;4974626;28;20034;-76
2021/12/28 04:00:12;;;;;;;2.50;1.20;;;;;;;;;;4989338;28;20039;-76
2021/12/28 04:02:38;;;;;;;1.63;1.00;;;;;;;;;;4991033;28;20039;-76
2021/12/28 04:05:03;;;;;;;1.48;1.20;;;;;;;;;;4987222;28;20644;-76
2021/12/28 04:07:29;;;;;;;1.40;1.30;;;;;;;;;;4989614;28;20034;-76
2021/12/28 04:12:20;;;;;;;3.72;1.35;;;;;;;;;;4976340;28;20062;-75
2021/12/28 04:14:46;;;;;;;5.10;1.50;;;;;;;;;;4990117;28;20089;-75
2021/12/28 04:17:11;;;;;;;3.13;1.10;;;;;;;;;;4975921;28;20444;-75
2021/12/28 04:19:36;;;;;;;2.83;1.25;;;;;;;;;;4975260;28;20125;-75
2021/12/28 04:22:02;;;;;;;2.35;1.35;;;;;;;;;;4975831;28;20164;-75
2021/12/28 04:24:28;;;;;;;2.13;1.40;;;;;;;;;;4974667;28;20649;-75
2021/12/28 04:26:53;;;;;;;2.35;1.45;;;;;;;;;;4990182;28;20135;-75
2021/12/28 04:29:18;;;;;;;2.53;1.25;;;;;;;;;;4974689;28;20054;-76
2021/12/28 04:31:43;;;;;;;4.80;1.20;;;;;;;;;;4972787;28;20102;-75
2021/12/28 04:34:09;;;;;;;2.20;1.27;;;;;;;;;;4972849;28;20075;-75
2021/12/28 04:36:34;;;;;;;6.93;1.50;;;;;;;;;;4974430;28;20061;-75
2021/12/28 04:39:00;;;;;;;2.78;1.38;;;;;;;;;;4991315;28;20058;-75
2021/12/28 04:41:25;;;;;;;3.35;1.58;;;;;;;;;;4958883;28;20107;-75
2021/12/28 04:43:50;;;;;;;6.20;1.50;;;;;;;;;;4974655;28;20041;-75
2021/12/28 04:46:16;;;;;;;1.52;1.15;;;;;;;;;;4973965;28;20022;-75
2021/12/28 04:48:41;;;;;;;2.17;1.40;;;;;;;;;;4975451;28;20034;-75
2021/12/28 04:51:06;;;;;;;1.20;1.20;;;;;;;;;;4974544;28;20646;-75
2021/12/28 04:53:32;;;;;;;4.90;1.23;;;;;;;;;;4975564;28;20026;-75
2021/12/28 04:55:57;;;;;;;1.33;1.23;;;;;;;;;;4974896;28;20501;-75
2021/12/28 04:58:22;;;;;;;2.53;1.20;;;;;;;;;;4973938;28;20077;-75
2021/12/28 05:00:48;;;;;;;3.80;1.23;;;;;;;;;;4989249;28;20046;-75
2021/12/28 05:03:14;;;;;;;1.25;1.10;;;;;;;;;;4974589;28;20473;-75
2021/12/28 05:05:44;;;;;;;3.45;1.10;;;;;;;;;;4974569;28;20081;-76
2021/12/28 05:08:11;;;;;;;1.45;0.90;;;;;;;;;;4971482;28;20049;-75
2021/12/28 05:10:36;;;;;;;1.95;1.27;;;;;;;;;;4989964;28;20061;-76
2021/12/28 05:13:02;;;;;;;0.80;0.80;;;;;;;;;;4992330;28;20109;-75
2021/12/28 05:15:27;;;;;;;1.00;1.00;;;;;;;;;;4977215;28;20082;-75
2021/12/28 05:17:53;;;;;;;2.15;1.00;;;;;;;;;;4978806;28;20389;-75
2021/12/28 05:20:18;;;;;;;1.00;0.90;;;;;;;;;;4979459;28;20058;-75
2021/12/28 05:22:43;;;;;;;0.80;0.80;;;;;;;;;;4979532;28;20027;-75
2021/12/28 05:25:09;;;;;;;2.20;1.10;;;;;;;;;;4965406;28;20037;-75
2021/12/28 05:27:34;;;;;;;2.15;0.93;;;;;;;;;;4976861;28;20026;-76
2021/12/28 05:29:59;;;;;;;2.55;1.00;;;;;;;;;;4977988;28;20485;-76
2021/12/28 05:32:25;;;;;;;0.65;0.65;;;;;;;;;;4978154;28;20062;-76
2021/12/28 05:34:50;;;;;;;0.70;0.70;;;;;;;;;;4979726;28;20162;-76
2021/12/28 05:37:16;;;;;;;0.70;0.70;;;;;;;;;;4978457;28;20053;-76
2021/12/28 05:39:41;;;;;;;2.53;1.00;;;;;;;;;;4977145;28;20070;-76
2021/12/28 05:42:07;;;;;;;2.75;0.90;;;;;;;;;;4977733;28;20031;-76
2021/12/28 05:44:32;;;;;;;0.80;0.80;;;;;;;;;;4991847;28;20037;-76
2021/12/28 05:46:57;;;;;;;2.75;0.98;;;;;;;;;;4977948;28;20062;-76
2021/12/28 05:49:23;;;;;;;0.95;0.80;;;;;;;;;;4978043;28;20105;-75
2021/12/28 05:51:48;;;;;;;0.80;0.80;;;;;;;;;;4976794;28;20030;-75
2021/12/28 05:54:14;;;;;;;0.80;0.80;;;;;;;;;;4974740;28;20105;-75
2021/12/28 05:56:41;;;;;;;1.17;0.70;;;;;;;;;;4975477;28;20047;-75
2021/12/28 05:59:06;;;;;;;0.80;0.80;;;;;;;;;;4976439;28;20539;-75
2021/12/28 06:01:32;;;;;;;0.90;0.90;;;;;;;;;;4976262;28;20048;-75
2021/12/28 06:03:57;;;;;;;2.47;0.70;;;;;;;;;;4976479;28;20164;-75
2021/12/28 06:06:22;;;;;;;0.82;0.82;;;;;;;;;;4978318;28;20041;-75
2021/12/28 06:08:48;;;;;;;2.22;0.75;;;;;;;;;;4992640;28;20026;-75
2021/12/28 06:11:13;;;;;;;2.55;0.95;;;;;;;;;;4979295;28;20347;-75
2021/12/28 06:13:42;;;;;;;0.80;0.80;;;;;;;;;;4975188;28;20035;-75
2021/12/28 06:16:08;;;;;;;0.93;0.93;;;;;;;;;;4976417;28;20035;-76
2021/12/28 06:18:34;;;;;;;1.42;1.02;;;;;;;;;;4976924;28;20039;-76
2021/12/28 06:20:59;;;;;;;3.13;1.77;;;;;;;;;;4977583;28;20151;-76
2021/12/28 06:23:24;;;;;;;4.40;2.10;;;;;;;;;;4991457;28;20512;-76
2021/12/28 06:25:50;;;;;;;1.88;1.63;;;;;;;;;;4975863;28;20034;-76
2021/12/28 06:28:15;;;;;;;2.08;1.58;;;;;;;;;;4973325;28;20027;-76
2021/12/28 06:30:40;;;;;;;1.52;1.13;;;;;;;;;;4976382;28;20046;-76
2021/12/28 06:33:06;;;;;;;1.50;1.40;;;;;;;;;;4975799;28;20026;-74
2021/12/28 06:35:31;;;;;;;1.27;1.17;;;;;;;;;;4975023;28;20026;-76
2021/12/28 06:37:56;;;;;;;1.15;1.02;;;;;;;;;;4975599;28;20030;-76
2021/12/28 06:40:21;;;;;;;2.03;1.15;;;;;;;;;;4976655;28;20083;-76
2021/12/28 06:42:47;;;;;;;1.50;1.10;;;;;;;;;;4977475;28;20030;-76
2021/12/28 06:45:12;;;;;;;1.33;1.20;;;;;;;;;;4990037;28;20038;-75
2021/12/28 06:47:38;;;;;;;2.08;1.50;;;;;;;;;;4988495;28;20031;-76
2021/12/28 06:50:04;;;;;;;2.13;1.50;;;;;;;;;;4989748;28;20089;-76
2021/12/28 06:52:29;;;;;;;2.22;1.20;;;;;;;;;;4975397;28;20521;-74
2021/12/28 06:54:54;;;;;;;4.10;1.90;;;;;;;;;;4975655;28;20053;-76
2021/12/28 06:57:21;;;;;;;2.33;1.90;;;;;;;;;;4975467;28;20144;-75
2021/12/28 06:59:46;;;;;;;6.28;4.40;;;;;;;;;;4976421;28;20425;-75
2021/12/28 07:02:15;;;;;;;9.35;6.53;;;;;;;;;;4988994;28;20030;-75
2021/12/28 07:04:41;;;;;;;16.75;11.20;;;;;;;;;;4976185;28;20437;-75
2021/12/28 07:07:07;;;;;;;9.20;6.57;;;;;;;;;;4972098;28;20073;-74
2021/12/28 07:09:32;;;;;;;5.45;3.53;;;;;;;;;;4975846;28;20409;-74
2021/12/28 07:11:58;;;;;;;2.95;1.92;;;;;;;;;;4972590;28;20057;-76
2021/12/28 07:14:23;;;;;;;1.90;1.45;;;;;;;;;;4988030;28;20027;-74
2021/12/28 07:16:48;;;;;;;1.52;1.40;;;;;;;;;;4968643;28;20034;-74
2021/12/28 07:19:14;;;;;;;4.93;1.30;;;;;;;;;;4978074;28;20030;-74
2021/12/28 07:21:39;;;;;;;2.22;1.50;;;;;;;;;;4970743;28;20023;-74
2021/12/28 07:24:06;;;;;;;1.48;1.20;;;;;;;;;;4973788;28;20944;-74
2021/12/28 07:26:31;;;;;;;1.10;1.10;;;;;;;;;;4969312;28;20042;-74
2021/12/28 07:28:56;;;;;;;1.08;1.00;;;;;;;;;;4971550;28;20022;-74
2021/12/28 07:31:22;;;;;;;1.52;1.42;;;;;;;;;;4974553;28;20050;-74
2021/12/28 07:33:47;;;;;;;3.25;1.38;;;;;;;;;;4971276;28;20023;-74
2021/12/28 07:36:12;;;;;;;2.38;1.10;;;;;;;;;;4970378;28;20034;-74
2021/12/28 07:38:37;;;;;;;2.42;1.38;;;;;;;;;;4973670;28;20046;-74
2021/12/28 07:41:03;;;;;;;1.42;1.30;;;;;;;;;;4977094;28;20036;-75
2021/12/28 07:43:28;;;;;;;1.27;1.17;;;;;;;;;;4975155;28;20031;-74
2021/12/28 07:45:53;;;;;;;1.20;1.20;;;;;;;;;;4975433;28;20154;-74
2021/12/28 07:48:19;;;;;;;1.75;1.30;;;;;;;;;;4973776;28;20096;-75
2021/12/28 07:50:44;;;;;;;1.30;1.20;;;;;;;;;;4978214;28;20031;-75
2021/12/28 07:53:09;;;;;;;1.48;1.38;;;;;;;;;;4973638;28;20034;-74
2021/12/28 07:55:35;;;;;;;1.38;1.27;;;;;;;;;;4974983;28;20030;-75
2021/12/28 07:58:00;;;;;;;2.03;1.42;;;;;;;;;;4973182;28;20026;-74
2021/12/28 08:00:26;;;;;;;1.48;1.17;;;;;;;;;;4972852;28;20082;-75
2021/12/28 08:02:51;;;;;;;1.48;1.38;;;;;;;;;;4974247;28;20097;-75
2021/12/28 08:05:16;;;;;;;3.42;2.00;;;;;;;;;;4986488;28;20069;-75
2021/12/28 08:07:41;;;;;;;1.35;1.25;;;;;;;;;;4988352;28;20062;-75
2021/12/28 08:10:08;;;;;;;3.08;1.58;;;;;;;;;;4988822;28;20030;-75
2021/12/28 08:12:33;;;;;;;1.42;1.13;;;;;;;;;;4973119;28;20030;-75
2021/12/28 08:14:59;;;;;;;1.58;1.27;;;;;;;;;;4973767;28;20379;-74
2021/12/28 08:17:26;;;;;;;1.98;1.20;;;;;;;;;;4988265;28;20027;-75
2021/12/28 08:19:51;;;;;;;1.35;1.20;;;;;;;;;;4988427;28;20026;-75
2021/12/28 08:22:16;;;;;;;0.98;0.98;;;;;;;;;;4974821;28;20109;-74
2021/12/28 08:24:42;;;;;;;2.20;1.08;;;;;;;;;;4973938;28;20046;-75
2021/12/28 08:27:07;;;;;;;3.20;1.90;;;;;;;;;;4975461;28;20022;-75
2021/12/28 08:29:32;;;;;;;3.80;1.58;;;;;;;;;;4987659;28;20122;-75
2021/12/28 08:31:58;;;;;;;2.80;1.77;;;;;;;;;;4974115;28;20130;-75
2021/12/28 08:34:23;;;;;;;2.30;1.30;;;;;;;;;;4977701;28;20086;-74
2021/12/28 08:36:48;;;;;;;2.55;1.80;;;;;;;;;;4973843;28;20045;-74
2021/12/28 08:39:14;;;;;;;1.98;1.50;;;;;;;;;;4974045;28;20019;-74
2021/12/28 08:41:39;;;;;;;1.23;1.10;;;;;;;;;;4973652;28;20045;-75
2021/12/28 08:44:05;;;;;;;1.92;1.40;;;;;;;;;;4990565;28;20560;-74
2021/12/28 08:46:30;;;;;;;1.48;1.38;;;;;;;;;;4973674;28;20054;-74
2021/12/28 08:48:56;;;;;;;3.85;1.10;;;;;;;;;;4977501;28;20473;-75
2021/12/28 08:51:21;;;;;;;1.40;1.30;;;;;;;;;;4977206;28;20046;-74
2021/12/28 08:53:46;;;;;;;1.45;1.23;;;;;;;;;;4978936;28;20378;-75
2021/12/28 08:56:12;;;;;;;1.65;1.55;;;;;;;;;;4992058;28;20587;-75
2021/12/28 08:58:37;;;;;;;2.25;1.63;;;;;;;;;;4976258;28;20062;-75
2021/12/28 09:01:03;;;;;;;2.45;1.67;;;;;;;;;;4975829;28;20047;-75
2021/12/28 09:03:29;;;;;;;1.98;1.40;;;;;;;;;;4976346;28;20041;-75
2021/12/28 09:05:54;;;;;;;1.60;1.33;;;;;;;;;;4975016;28;20412;-75
2021/12/28 09:08:20;;;;;;;2.22;1.40;;;;;;;;;;4977010;28;20041;-75
2021/12/28 09:10:46;;;;;;;1.10;0.98;;;;;;;;;;4977943;28;20030;-75
2021/12/28 09:13:13;;;;;;;1.50;1.40;;;;;;;;;;4989607;28;20033;-75
2021/12/28 09:15:39;;;;;;;1.50;1.40;;;;;;;;;;4958621;28;20078;-75
2021/12/28 09:18:04;;;;;;;1.50;1.40;;;;;;;;;;4974891;28;20026;-77
2021/12/28 09:20:30;;;;;;;3.08;1.42;;;;;;;;;;4976051;28;20035;-76
2021/12/28 09:22:56;;;;;;;1.70;1.60;;;;;;;;;;4945593;28;20034;-76
2021/12/28 09:25:21;;;;;;;3.53;1.40;;;;;;;;;;4965825;28;20371;-76
2021/12/28 09:27:46;;;;;;;1.70;1.60;;;;;;;;;;4992882;28;20033;-76
2021/12/28 09:30:12;;;;;;;2.47;1.50;;;;;;;;;;4992454;28;20031;-76
2021/12/28 09:32:37;;;;;;;2.72;2.00;;;;;;;;;;4980747;28;20153;-76
2021/12/28 09:35:03;;;;;;;1.30;1.20;;;;;;;;;;4991619;28;20042;-76
2021/12/28 09:37:28;;;;;;;1.40;1.30;;;;;;;;;;4976708;28;20093;-76
2021/12/28 09:39:54;;;;;;;6.65;4.07;;;;;;;;;;4977297;28;20485;-76
2021/12/28 09:42:19;;;;;;;7.85;5.07;;;;;;;;;;4991490;28;20042;-76
2021/12/28 09:44:49;;;;;;;2.75;2.13;;;;;;;;;;4989935;28;20489;-76
2021/12/28 09:47:16;;;;;;;4.50;2.05;;;;;;;;;;4955270;28;20022;-75
2021/12/28 09:49:41;;;;;;;3.03;2.65;;;;;;;;;;4942069;28;20026;-74
2021/12/28 09:52:06;;;;;;;3.13;2.33;;;;;;;;;;4975456;28;20049;-74
2021/12/28 09:54:33;;;;;;;3.63;2.28;;;;;;;;;;4971651;28;20109;-77
2021/12/28 09:57:00;;;;;;;4.65;2.45;;;;;;;;;;4972413;28;20026;-74
2021/12/28 09:59:26;;;;;;;7.80;3.20;;;;;;;;;;4973440;28;20030;-74
2021/12/28 10:01:51;;;;;;;6.40;3.25;;;;;;;;;;4989112;28;20389;-74
2021/12/28 10:04:18;;;;;;;5.20;3.45;;;;;;;;;;4975350;28;20030;-74
2021/12/28 10:06:43;;;;;;;6.00;3.45;;;;;;;;;;4990181;28;20114;-75
2021/12/28 10:09:16;;;;;;;6.63;3.00;;;;;;;;;;4974826;28;20556;-75
2021/12/28 10:11:49;;;;;;;3.95;2.42;;;;;;;;;;4958786;28;20038;-74
2021/12/28 10:14:19;;;;;;;4.63;2.45;;;;;;;;;;4976272;28;20033;-74
2021/12/28 10:16:50;;;;;;;2.90;2.10;;;;;;;;;;4975578;28;20392;-75
2021/12/28 10:19:41;;;;;;;4.60;2.35;;;;;;;;;;4970325;28;20027;-74
2021/12/28 10:22:31;;;;;;;2.10;1.90;;;;;;;;;;4973543;28;20077;-74
2021/12/28 10:25:00;;;;;;;2.42;2.10;;;;;;;;;;4972561;28;20046;-75
2021/12/28 10:27:27;;;;;;;2.58;1.95;;;;;;;;;;4991753;28;20030;-74
2021/12/28 10:29:53;;;;;;;1.60;1.50;;;;;;;;;;4974830;28;20080;-74
2021/12/28 10:32:23;;;;;;;1.75;1.65;;;;;;;;;;4990533;28;20429;-74
2021/12/28 10:34:54;;;;;;;1.92;1.67;;;;;;;;;;4988930;28;20575;-75
2021/12/28 10:37:31;;;;;;;1.77;1.30;;;;;;;;;;4991265;28;20063;-74
2021/12/28 10:39:58;;;;;;;1.50;1.40;;;;;;;;;;4961548;28;20030;-74
2021/12/28 10:42:42;;;;;;;1.50;1.40;;;;;;;;;;4990021;28;20104;-75
2021/12/28 10:45:15;;;;;;;1.98;1.50;;;;;;;;;;4973624;28;20576;-74
2021/12/28 10:47:40;;;;;;;1.40;1.30;;;;;;;;;;4976746;28;20046;-74
2021/12/28 10:50:39;;;;;;;1.50;1.40;;;;;;;;;;4992471;28;20022;-74
2021/12/28 10:53:10;;;;;;;1.50;1.40;;;;;;;;;;4968691;28;20042;-74
2021/12/28 10:55:36;;;;;;;2.10;1.60;;;;;;;;;;4974359;28;20080;-74
2021/12/28 10:58:02;;;;;;;1.60;1.50;;;;;;;;;;4976138;28;20034;-74
2021/12/28 11:00:42;;;;;;;1.60;1.50;;;;;;;;;;4989030;28;20043;-74
2021/12/28 11:03:16;;;;;;;2.55;1.60;;;;;;;;;;4962221;28;20018;-74
2021/12/28 11:05:43;;;;;;;;;;;;;;;;;;4976023;28;20049;-74
2021/12/28 11:08:08;;;;;;;6.75;1.50;;;;;;;;;;4976232;28;19913;-74
2021/12/28 11:10:34;;;;;;;1.92;1.45;;;;;;;;;;4975535;28;20053;-74
2021/12/28 11:13:00;;;;;;;4.30;1.98;;;;;;;;;;4974897;28;20511;-74
2021/12/28 11:15:25;;;;;;;2.53;2.05;;;;;;;;;;4991235;28;20031;-74
2021/12/28 11:17:51;;;;;;;4.03;2.38;;;;;;;;;;4976222;28;20031;-74
2021/12/28 11:20:16;;;;;;;2.90;2.28;;;;;;;;;;4959777;28;20034;-74
2021/12/28 11:23:11;;;;;;;2.58;2.30;;;;;;;;;;4976935;28;20052;-75
2021/12/28 11:25:36;;;;;;;9.43;3.80;;;;;;;;;;4973212;28;20022;-74
2021/12/28 11:28:11;;;;;;;6.78;4.88;;;;;;;;;;4962681;28;20394;-74
2021/12/28 11:30:37;;;;;;;5.95;4.95;;;;;;;;;;4975183;28;20097;-74
2021/12/28 11:33:04;;;;;;;4.10;3.10;;;;;;;;;;4974896;28;20037;-74
2021/12/28 11:35:29;;;;;;;3.42;2.55;;;;;;;;;;4973670;28;20069;-74
2021/12/28 11:37:55;;;;;;;3.53;2.47;;;;;;;;;;4974702;28;20062;-74
2021/12/28 11:40:20;;;;;;;1.65;1.50;;;;;;;;;;4991629;28;20096;-74
2021/12/28 11:42:45;;;;;;;1.60;1.50;;;;;;;;;;4975653;28;20065;-76
2021/12/28 11:45:10;;;;;;;6.85;1.58;;;;;;;;;;4972907;28;20305;-74
2021/12/28 11:47:36;;;;;;;2.42;1.77;;;;;;;;;;4958830;28;20087;-74
2021/12/28 11:50:04;;;;;;;1.50;1.40;;;;;;;;;;4989254;28;20030;-74
2021/12/28 11:52:29;;;;;;;0.98;0.98;;;;;;;;;;4973323;28;20046;-74
2021/12/28 11:54:54;;;;;;;1.83;0.60;;;;;;;;;;4989361;28;20049;-73
2021/12/28 11:57:21;;;;;;;0.60;0.60;;;;;;;;;;4988935;28;20050;-73
2021/12/28 11:59:51;;;;;;;1.60;1.50;;;;;;;;;;4971680;28;20019;-73
2021/12/28 12:02:16;;;;;;;0.60;0.60;;;;;;;;;;4988093;28;20509;-73
2021/12/28 12:04:46;;;;;;;0.60;0.60;;;;;;;;;;4973424;28;20117;-73
2021/12/28 12:07:15;;;;;;;0.75;0.70;;;;;;;;;;4960601;28;20030;-73
2021/12/28 12:09:50;;;;;;;2.05;0.60;;;;;;;;;;4975555;28;20022;-74
2021/12/28 12:12:22;;;;;;;0.50;0.50;;;;;;;;;;4974872;28;20088;-73
2021/12/28 12:14:54;;;;;;;1.45;0.80;;;;;;;;;;4989036;28;20039;-73
2021/12/28 12:17:44;;;;;;;0.93;0.90;;;;;;;;;;4976381;28;20474;-73
2021/12/28 12:20:30;;;;;;;2.83;0.95;;;;;;;;;;4975335;28;20030;-73
2021/12/28 12:23:05;;;;;;;0.60;0.60;;;;;;;;;;4975102;28;20022;-73
2021/12/28 12:25:42;;;;;;;0.50;0.50;;;;;;;;;;4974592;28;20029;-73
2021/12/28 12:28:08;;;;;;;2.42;0.65;;;;;;;;;;4975342;28;20128;-73
2021/12/28 12:30:34;;;;;;;0.50;0.50;;;;;;;;;;4974160;28;20511;-73
2021/12/28 12:33:06;;;;;;;0.65;0.60;;;;;;;;;;4975180;28;20193;-73
2021/12/28 12:35:55;;;;;;;0.50;0.50;;;;;;;;;;4990233;28;20030;-74
2021/12/28 12:38:20;;;;;;;0.30;0.30;;;;;;;;;;4946155;28;20034;-73
2021/12/28 12:40:59;;;;;;;0.50;0.50;;;;;;;;;;4974359;28;20068;-73
2021/12/28 12:43:27;;;;;;;0.43;0.43;;;;;;;;;;4972496;28;20031;-73
2021/12/28 12:45:52;;;;;;;0.60;0.60;;;;;;;;;;4970401;28;20067;-74
2021/12/28 12:48:36;;;;;;;0.77;0.60;;;;;;;;;;4973107;28;20113;-73
2021/12/28 12:51:19;;;;;;;0.50;0.50;;;;;;;;;;4973757;28;20026;-73
2021/12/28 12:53:45;;;;;;;0.40;0.40;;;;;;;;;;4974579;28;20300;-73
2021/12/28 12:56:15;;;;;;;1.02;0.40;;;;;;;;;;4975542;28;20034;-73
2021/12/28 12:58:41;;;;;;;0.57;0.57;;;;;;;;;;4976160;28;20031;-73
2021/12/28 13:01:06;;;;;;;0.40;0.40;;;;;;;;;;4972969;28;20057;-73
2021/12/28 13:03:33;;;;;;;0.50;0.50;;;;;;;;;;4959301;28;20042;-73
2021/12/28 13:06:00;;;;;;;0.50;0.50;;;;;;;;;;4973422;28;20061;-73
2021/12/28 13:08:25;;;;;;;0.80;0.80;;;;;;;;;;4976135;28;20048;-73
2021/12/28 13:10:50;;;;;;;0.40;0.40;;;;;;;;;;4976272;28;20500;-73
2021/12/28 13:13:16;;;;;;;0.30;0.30;;;;;;;;;;4973534;28;20489;-73
2021/12/28 13:15:41;;;;;;;0.30;0.30;;;;;;;;;;4974181;28;20548;-73
2021/12/28 13:18:06;;;;;;;0.50;0.50;;;;;;;;;;4974380;28;20026;-73
2021/12/28 13:20:33;;;;;;;0.40;0.40;;;;;;;;;;4975543;28;20607;-73
2021/12/28 13:23:07;;;;;;;0.50;0.50;;;;;;;;;;4974621;28;20022;-73
2021/12/28 13:25:39;;;;;;;2.55;0.52;;;;;;;;;;4989554;28;20023;-73
2021/12/28 13:28:06;;;;;;;0.50;0.50;;;;;;;;;;4973782;28;20635;-73
2021/12/28 13:30:34;;;;;;;1.15;0.63;;;;;;;;;;4988884;28;20610;-74
2021/12/28 13:32:59;;;;;;;0.45;0.45;;;;;;;;;;4973881;28;20038;-73
2021/12/28 13:35:30;;;;;;;0.40;0.40;;;;;;;;;;4975280;28;20118;-73
2021/12/28 13:37:57;;;;;;;0.40;0.40;;;;;;;;;;4978846;28;20077;-73
2021/12/28 13:40:43;;;;;;;0.30;0.30;;;;;;;;;;4992656;28;20036;-73
2021/12/28 13:43:14;;;;;;;0.52;0.52;;;;;;;;;;4977854;28;20018;-73
2021/12/28 13:45:50;;;;;;;3.50;0.50;;;;;;;;;;4976220;28;20061;-73
2021/12/28 13:48:29;;;;;;;0.68;0.68;;;;;;;;;;4976538;28;20027;-74
2021/12/28 13:50:57;;;;;;;0.40;0.40;;;;;;;;;;4976707;28;20050;-73
2021/12/28 13:53:25;;;;;;;0.57;0.57;;;;;;;;;;4976501;28;20030;-74
2021/12/28 13:56:12;;;;;;;0.98;0.43;;;;;;;;;;4973895;28;20317;-73
2021/12/28 13:58:45;;;;;;;0.57;0.57;;;;;;;;;;4972178;28;20034;-74
2021/12/28 14:01:11;;;;;;;0.75;0.50;;;;;;;;;;4960686;28;20088;-74
2021/12/28 14:03:37;;;;;;;0.50;0.50;;;;;;;;;;4977103;28;20038;-73
2021/12/28 14:06:02;;;;;;;0.40;0.40;;;;;;;;;;4976398;28;20022;-74
2021/12/28 14:08:28;;;;;;;0.50;0.50;;;;;;;;;;4993362;28;20682;-73
2021/12/28 14:10:54;;;;;;;1.75;0.68;;;;;;;;;;4960249;28;20068;-73
2021/12/28 14:13:20;;;;;;;0.60;0.60;;;;;;;;;;4976120;28;20034;-74
2021/12/28 14:16:02;;;;;;;0.57;0.52;;;;;;;;;;4975266;28;20421;-73
2021/12/28 14:18:29;;;;;;;0.50;0.50;;;;;;;;;;4975000;28;20026;-74
2021/12/28 14:20:55;;;;;;;0.60;0.60;;;;;;;;;;4992333;28;20481;-74
2021/12/28 14:23:32;;;;;;;0.47;0.47;;;;;;;;;;4992165;28;20042;-74
2021/12/28 14:26:08;;;;;;;0.50;0.50;;;;;;;;;;4976518;28;20386;-74
2021/12/28 14:28:35;;;;;;;0.52;0.52;;;;;;;;;;4976623;28;20265;-73
2021/12/28 14:31:17;;;;;;;0.40;0.40;;;;;;;;;;4975449;28;20038;-74
2021/12/28 14:33:47;;;;;;;0.43;0.43;;;;;;;;;;4975602;28;20033;-74
2021/12/28 14:36:12;;;;;;;0.40;0.40;;;;;;;;;;4974590;28;20102;-73
2021/12/28 14:38:39;;;;;;;0.60;0.60;;;;;;;;;;4989840;28;20412;-74
2021/12/28 14:41:18;;;;;;;0.60;0.60;;;;;;;;;;4974769;28;20030;-73
2021/12/28 14:43:44;;;;;;;0.60;0.60;;;;;;;;;;4974563;28;20035;-74
2021/12/28 14:46:24;;;;;;;0.50;0.50;;;;;;;;;;4972058;28;20050;-73
2021/12/28 14:48:50;;;;;;;0.60;0.60;;;;;;;;;;4976219;28;20122;-74